createdAt,value
2018-08-12T00:00:29.963Z,4.80
2018-08-12T00:02:59.832Z,4.80
2018-08-12T00:05:28.706Z,5.93
2018-08-12T00:07:57.572Z,5.23
2018-08-12T00:10:26.662Z,5.30
2018-08-12T00:12:55.479Z,4.07
2018-08-12T00:15:24.696Z,4.30
2018-08-12T00:17:53.519Z,4.20
2018-08-12T00:20:23.479Z,4.30
2018-08-12T00:22:52.333Z,4.23
2018-08-12T00:25:22.964Z,4.20
2018-08-12T00:27:51.773Z,4.47
2018-08-12T00:30:20.866Z,3.77
2018-08-12T00:32:49.719Z,4.07
2018-08-12T00:35:19.458Z,3.90
2018-08-12T00:37:48.371Z,3.10
2018-08-12T00:40:17.879Z,3.07
2018-08-12T00:42:47.174Z,3.13
2018-08-12T00:45:17.879Z,2.77
2018-08-12T00:47:46.909Z,3.10
2018-08-12T00:50:16.598Z,3.00
2018-08-12T00:52:45.475Z,3.50
2018-08-12T00:55:15.689Z,3.07
2018-08-12T00:57:45.734Z,3.37
2018-08-12T01:00:16.624Z,3.13
2018-08-12T01:02:45.427Z,3.50
2018-08-12T01:05:15.966Z,3.00
2018-08-12T01:07:45.545Z,3.27
2018-08-12T01:10:15.114Z,3.07
2018-08-12T01:12:43.997Z,3.40
2018-08-12T01:15:16.784Z,3.07
2018-08-12T01:17:45.974Z,3.50
2018-08-12T01:20:18.790Z,3.33
2018-08-12T01:22:47.623Z,3.30
2018-08-12T01:25:16.820Z,3.47
2018-08-12T01:27:45.613Z,3.90
2018-08-12T01:30:17.449Z,4.20
2018-08-12T01:32:46.988Z,3.60
2018-08-12T01:35:16.244Z,3.83
2018-08-12T01:37:45.838Z,4.27
2018-08-12T01:40:15.821Z,4.73
2018-08-12T01:42:45.133Z,4.60
2018-08-12T01:45:15.889Z,4.40
2018-08-12T01:47:44.686Z,4.80
2018-08-12T01:50:14.941Z,4.83
2018-08-12T01:52:43.935Z,4.90
2018-08-12T01:55:12.711Z,4.77
2018-08-12T01:57:41.980Z,4.83
2018-08-12T02:00:16.338Z,4.50
2018-08-12T02:02:45.700Z,4.50
2018-08-12T02:05:14.618Z,4.03
2018-08-12T02:07:43.943Z,4.37
2018-08-12T02:10:12.839Z,4.20
2018-08-12T02:12:42.030Z,3.83
2018-08-12T02:15:11.792Z,4.00
2018-08-12T02:17:41.025Z,4.10
2018-08-12T02:20:10.801Z,3.90
2018-08-12T02:22:40.839Z,3.97
2018-08-12T02:25:11.037Z,3.90
2018-08-12T02:27:39.930Z,3.80
2018-08-12T02:30:10.805Z,4.07
2018-08-12T02:32:40.006Z,4.33
2018-08-12T02:35:09.285Z,3.67
2018-08-12T02:37:38.080Z,4.37
2018-08-12T02:40:08.862Z,3.93
2018-08-12T02:42:38.092Z,4.40
2018-08-12T02:45:09.425Z,4.13
2018-08-12T02:47:38.722Z,3.87
2018-08-12T02:50:07.975Z,4.30
2018-08-12T02:52:37.392Z,4.37
2018-08-12T02:55:07.555Z,4.00
2018-08-12T02:57:36.449Z,4.33
2018-08-12T03:00:06.845Z,3.73
2018-08-12T03:02:35.554Z,3.83
2018-08-12T03:05:04.538Z,4.40
2018-08-12T03:07:33.675Z,4.03
2018-08-12T03:10:02.450Z,4.40
2018-08-12T03:12:31.519Z,4.50
2018-08-12T03:15:00.247Z,4.10
2018-08-12T03:17:29.055Z,4.17
2018-08-12T03:19:57.929Z,4.57
2018-08-12T03:22:27.180Z,4.63
2018-08-12T03:24:56.459Z,3.70
2018-08-12T03:27:25.415Z,3.93
2018-08-12T03:29:54.239Z,4.10
2018-08-12T03:32:23.363Z,3.90
2018-08-12T03:34:52.491Z,4.73
2018-08-12T03:37:21.288Z,4.10
2018-08-12T03:39:50.170Z,4.13
2018-08-12T03:42:18.950Z,4.57
2018-08-12T03:44:47.705Z,4.33
2018-08-12T03:47:16.446Z,4.13
2018-08-12T03:49:45.227Z,4.37
2018-08-12T03:52:13.972Z,4.80
2018-08-12T03:54:42.743Z,4.90
2018-08-12T03:57:11.518Z,5.13
2018-08-12T03:59:40.307Z,4.90
2018-08-12T04:02:09.093Z,4.87
2018-08-12T04:04:37.872Z,4.43
2018-08-12T04:07:07.034Z,5.00
2018-08-12T04:09:35.826Z,4.73
2018-08-12T04:12:04.615Z,4.67
2018-08-12T04:14:33.429Z,4.40
2018-08-12T04:17:02.548Z,4.67
2018-08-12T04:19:32.139Z,4.27
2018-08-12T04:22:01.443Z,4.60
2018-08-12T04:24:30.274Z,4.67
2018-08-12T04:26:59.122Z,4.60
2018-08-12T04:29:27.907Z,4.30
2018-08-12T04:31:56.770Z,4.47
2018-08-12T04:34:25.555Z,4.30
2018-08-12T04:36:54.279Z,4.47
2018-08-12T04:39:23.068Z,4.23
2018-08-12T04:41:52.222Z,4.43
2018-08-12T04:44:20.994Z,4.20
2018-08-12T04:46:49.799Z,3.73
2018-08-12T04:49:18.663Z,4.17
2018-08-12T04:51:47.434Z,4.10
2018-08-12T04:54:16.190Z,4.50
2018-08-12T04:56:44.970Z,4.03
2018-08-12T04:59:13.735Z,5.03
2018-08-12T05:01:42.531Z,4.27
2018-08-12T05:04:11.339Z,3.83
2018-08-12T05:06:40.148Z,3.57
2018-08-12T05:09:10.570Z,3.60
2018-08-12T05:11:39.690Z,3.90
2018-08-12T05:14:08.555Z,3.57
2018-08-12T05:16:37.342Z,3.50
2018-08-12T05:19:06.159Z,3.43
2018-08-12T05:21:34.926Z,3.90
2018-08-12T05:24:03.770Z,3.87
2018-08-12T05:26:32.606Z,4.60
2018-08-12T05:29:01.735Z,3.80
2018-08-12T05:31:30.983Z,3.80
2018-08-12T05:33:59.754Z,4.60
2018-08-12T05:36:28.555Z,3.93
2018-08-12T05:38:57.351Z,4.00
2018-08-12T05:41:26.129Z,4.60
2018-08-12T05:43:55.119Z,4.27
2018-08-12T05:46:24.660Z,4.17
2018-08-12T05:48:53.552Z,4.50
2018-08-12T05:51:22.307Z,4.50
2018-08-12T05:53:51.243Z,4.53
2018-08-12T05:56:20.068Z,4.27
2018-08-12T05:58:49.273Z,4.67
2018-08-12T06:01:18.117Z,4.23
2018-08-12T06:03:46.896Z,4.63
2018-08-12T06:06:16.038Z,4.40
2018-08-12T06:08:44.851Z,4.40
2018-08-12T06:11:13.807Z,4.37
2018-08-12T06:13:42.575Z,4.50
2018-08-12T06:16:11.505Z,5.73
2018-08-12T06:18:40.635Z,3.80
2018-08-12T06:21:09.463Z,3.90
2018-08-12T06:23:38.222Z,4.47
2018-08-12T06:26:07.837Z,4.37
2018-08-12T06:28:36.738Z,4.30
2018-08-12T06:31:05.618Z,4.70
2018-08-12T06:33:34.443Z,4.20
2018-08-12T06:36:03.293Z,4.73
2018-08-12T06:38:32.075Z,4.90
2018-08-12T06:41:00.830Z,4.50
2018-08-12T06:43:29.667Z,4.20
2018-08-12T06:45:58.478Z,4.80
2018-08-12T06:48:27.310Z,4.93
2018-08-12T06:50:56.207Z,4.93
2018-08-12T06:53:24.966Z,4.90
2018-08-12T06:55:54.076Z,4.70
2018-08-12T06:58:22.880Z,7.50
2018-08-12T07:00:51.855Z,4.77
2018-08-12T07:03:20.632Z,4.97
2018-08-12T07:05:49.407Z,4.97
2018-08-12T07:08:18.283Z,7.07
2018-08-12T07:10:47.204Z,5.90
2018-08-12T07:13:16.317Z,5.47
2018-08-12T07:15:45.529Z,5.97
2018-08-12T07:18:14.422Z,5.50
2018-08-12T07:20:43.323Z,5.63
2018-08-12T07:23:12.184Z,6.10
2018-08-12T07:25:41.379Z,5.80
2018-08-12T07:28:10.204Z,5.63
2018-08-12T07:30:39.034Z,5.10
2018-08-12T07:33:07.841Z,4.67
2018-08-12T07:35:36.646Z,5.30
2018-08-12T07:38:05.446Z,5.43
2018-08-12T07:40:34.282Z,4.77
2018-08-12T07:43:03.047Z,5.27
2018-08-12T07:45:32.120Z,5.27
2018-08-12T07:48:00.857Z,4.47
2018-08-12T07:50:29.990Z,4.57
2018-08-12T07:52:58.725Z,4.70
2018-08-12T07:55:27.557Z,4.87
2018-08-12T07:57:57.328Z,4.67
2018-08-12T08:00:26.821Z,4.27
2018-08-12T08:02:55.681Z,4.37
2018-08-12T08:05:25.144Z,5.10
2018-08-12T08:07:54.443Z,4.40
2018-08-12T08:10:23.247Z,4.10
2018-08-12T08:12:52.109Z,3.70
2018-08-12T08:15:21.751Z,4.03
2018-08-12T08:17:50.766Z,4.27
2018-08-12T08:20:19.544Z,3.67
2018-08-12T08:22:48.656Z,4.47
2018-08-12T08:25:17.413Z,3.37
2018-08-12T08:27:46.320Z,3.70
2018-08-12T08:30:16.340Z,3.43
2018-08-12T08:32:45.299Z,3.30
2018-08-12T08:35:14.603Z,3.30
2018-08-12T08:37:43.997Z,3.43
2018-08-12T08:40:14.230Z,2.93
2018-08-12T08:42:43.090Z,3.17
2018-08-12T08:45:15.739Z,3.07
2018-08-12T08:47:46.105Z,2.70
2018-08-12T08:50:15.239Z,3.33
2018-08-12T08:52:44.448Z,2.73
2018-08-12T08:55:14.210Z,3.40
2018-08-12T08:57:43.560Z,3.33
2018-08-12T09:00:15.271Z,3.27
2018-08-12T09:02:46.868Z,3.67
2018-08-12T09:05:16.265Z,2.83
2018-08-12T09:07:45.527Z,3.10
2018-08-12T09:10:16.010Z,2.60
2018-08-12T09:12:44.955Z,3.70
2018-08-12T09:15:15.799Z,3.30
2018-08-12T09:17:45.433Z,2.77
2018-08-12T09:20:15.973Z,2.70
2018-08-12T09:22:44.882Z,3.23
2018-08-12T09:25:14.182Z,3.50
2018-08-12T09:27:42.934Z,3.17
2018-08-12T09:30:14.033Z,2.83
2018-08-12T09:32:43.393Z,2.87
2018-08-12T09:35:12.231Z,2.70
2018-08-12T09:37:41.099Z,2.67
2018-08-12T09:40:12.269Z,2.40
2018-08-12T09:42:41.921Z,2.57
2018-08-12T09:45:13.151Z,3.97
2018-08-12T09:47:42.045Z,3.63
2018-08-12T09:50:11.738Z,2.70
2018-08-12T09:52:40.746Z,2.37
2018-08-12T09:55:10.661Z,2.90
2018-08-12T09:57:39.446Z,2.97
2018-08-12T10:00:11.825Z,3.00
2018-08-12T10:02:40.731Z,2.63
2018-08-12T10:05:09.879Z,2.60
2018-08-12T10:07:38.671Z,2.90
2018-08-12T10:10:07.543Z,3.17
2018-08-12T10:12:36.691Z,2.90
2018-08-12T10:15:06.331Z,3.30
2018-08-12T10:17:35.468Z,2.70
2018-08-12T10:20:04.839Z,2.40
2018-08-12T10:22:33.678Z,3.17
2018-08-12T10:25:02.480Z,3.00
2018-08-12T10:27:31.223Z,3.00
2018-08-12T10:29:59.999Z,3.20
2018-08-12T10:32:28.854Z,3.20
2018-08-12T10:34:57.594Z,3.40
2018-08-12T10:37:26.768Z,3.10
2018-08-12T10:39:55.960Z,2.87
2018-08-12T10:42:24.752Z,3.30
2018-08-12T10:44:53.512Z,3.10
2018-08-12T10:47:22.266Z,3.77
2018-08-12T10:49:51.498Z,2.60
2018-08-12T10:52:20.378Z,3.10
2018-08-12T10:54:49.226Z,2.73
2018-08-12T10:57:18.159Z,3.47
2018-08-12T10:59:47.372Z,3.90
2018-08-12T11:02:17.091Z,3.70
2018-08-12T11:04:46.031Z,4.30
2018-08-12T11:07:14.864Z,2.80
2018-08-12T11:09:43.736Z,2.77
2018-08-12T11:12:12.555Z,4.83
2018-08-12T11:14:41.671Z,3.30
2018-08-12T11:17:10.885Z,3.17
2018-08-12T11:19:39.730Z,3.13
2018-08-12T11:22:10.569Z,3.13
2018-08-12T11:24:39.366Z,2.50
2018-08-12T11:27:08.284Z,2.70
2018-08-12T11:29:37.127Z,3.00
2018-08-12T11:32:06.440Z,3.50
2018-08-12T11:34:35.304Z,3.10
2018-08-12T11:37:04.143Z,2.70
2018-08-12T11:39:32.999Z,2.80
2018-08-12T11:42:01.862Z,2.60
2018-08-12T11:44:30.721Z,3.43
2018-08-12T11:46:59.501Z,3.60
2018-08-12T11:49:28.307Z,3.70
2018-08-12T11:51:57.123Z,3.40
2018-08-12T11:54:25.927Z,2.80
2018-08-12T11:56:54.835Z,3.10
2018-08-12T11:59:24.110Z,2.77
2018-08-12T12:01:52.931Z,2.83
2018-08-12T12:04:21.758Z,3.13
2018-08-12T12:06:51.082Z,3.23
2018-08-12T12:09:19.864Z,2.80
2018-08-12T12:11:48.717Z,2.80
2018-08-12T12:14:17.509Z,3.07
2018-08-12T12:16:46.416Z,2.80
2018-08-12T12:19:15.814Z,3.10
2018-08-12T12:21:44.647Z,3.30
2018-08-12T12:24:13.983Z,3.10
2018-08-12T12:26:43.095Z,3.03
2018-08-12T12:29:11.886Z,4.30
2018-08-12T12:31:40.659Z,3.23
2018-08-12T12:34:09.671Z,3.43
2018-08-12T12:36:38.877Z,3.23
2018-08-12T12:39:09.597Z,4.03
2018-08-12T12:41:38.513Z,3.20
2018-08-12T12:44:07.802Z,2.80
2018-08-12T12:46:36.650Z,2.80
2018-08-12T12:49:05.589Z,2.80
2018-08-12T12:51:34.364Z,2.80
2018-08-12T12:54:03.234Z,2.73
2018-08-12T12:56:32.044Z,3.00
2018-08-12T12:59:00.902Z,2.70
2018-08-12T13:01:29.640Z,2.80
2018-08-12T13:03:58.456Z,3.00
2018-08-12T13:06:27.691Z,2.80
2018-08-12T13:08:56.522Z,2.80
2018-08-12T13:11:25.463Z,2.50
2018-08-12T13:13:54.255Z,2.80
2018-08-12T13:16:23.351Z,3.13
2018-08-12T13:18:52.134Z,3.07
2018-08-12T13:21:21.007Z,2.90
2018-08-12T13:23:49.827Z,2.90
2018-08-12T13:26:19.010Z,2.57
2018-08-12T13:28:47.841Z,2.30
2018-08-12T13:31:16.605Z,3.33
2018-08-12T13:33:45.350Z,2.23
2018-08-12T13:36:14.170Z,2.73
2018-08-12T13:38:42.973Z,2.60
2018-08-12T13:41:11.824Z,2.63
2018-08-12T13:43:40.814Z,2.73
2018-08-12T13:46:09.640Z,2.50
2018-08-12T13:48:38.526Z,2.60
2018-08-12T13:51:07.330Z,2.57
2018-08-12T13:53:36.042Z,2.77
2018-08-12T13:56:04.879Z,2.20
2018-08-12T13:58:33.681Z,2.60
2018-08-12T14:01:02.494Z,2.90
2018-08-12T14:03:31.366Z,2.63
2018-08-12T14:06:00.159Z,3.23
2018-08-12T14:08:28.968Z,2.87
2018-08-12T14:10:57.820Z,2.90
2018-08-12T14:13:26.586Z,2.40
2018-08-12T14:15:55.439Z,2.70
2018-08-12T14:18:24.230Z,2.73
2018-08-12T14:20:53.141Z,2.33
2018-08-12T14:23:22.102Z,2.43
2018-08-12T14:25:50.858Z,2.53
2018-08-12T14:28:19.637Z,2.47
2018-08-12T14:30:48.482Z,2.13
2018-08-12T14:33:17.313Z,2.90
2018-08-12T14:35:46.115Z,2.60
2018-08-12T14:38:14.946Z,5.17
2018-08-12T14:40:43.711Z,4.37
2018-08-12T14:43:12.480Z,2.90
2018-08-12T14:45:41.387Z,2.57
2018-08-12T14:48:10.143Z,2.50
2018-08-12T14:50:38.842Z,2.87
2018-08-12T14:53:07.922Z,2.43
2018-08-12T14:55:36.762Z,2.60
2018-08-12T14:58:05.862Z,2.70
2018-08-12T15:00:34.638Z,2.40
2018-08-12T15:03:03.499Z,2.30
2018-08-12T15:05:32.246Z,2.90
2018-08-12T15:08:01.502Z,2.57
2018-08-12T15:10:30.305Z,2.50
2018-08-12T15:12:59.480Z,3.13
2018-08-12T15:15:28.239Z,2.37
2018-08-12T15:17:57.206Z,2.83
2018-08-12T15:20:26.462Z,2.20
2018-08-12T15:22:55.296Z,2.80
2018-08-12T15:25:24.201Z,2.33
2018-08-12T15:27:53.305Z,2.33
2018-08-12T15:30:22.091Z,2.20
2018-08-12T15:32:50.910Z,2.90
2018-08-12T15:35:19.703Z,2.73
2018-08-12T15:37:48.886Z,2.60
2018-08-12T15:40:17.761Z,1.97
2018-08-12T15:42:46.575Z,2.20
2018-08-12T15:45:16.731Z,2.80
2018-08-12T15:47:46.096Z,2.30
2018-08-12T15:50:15.408Z,3.23
2018-08-12T15:52:45.516Z,2.33
2018-08-12T15:55:14.967Z,2.27
2018-08-12T15:57:43.826Z,2.50
2018-08-12T16:00:16.838Z,2.33
2018-08-12T16:02:46.241Z,2.67
2018-08-12T16:05:15.075Z,2.30
2018-08-12T16:07:44.646Z,2.37
2018-08-12T16:10:17.060Z,2.50
2018-08-12T16:12:47.198Z,2.40
2018-08-12T16:15:16.115Z,2.70
2018-08-12T16:17:45.006Z,2.10
2018-08-12T16:20:13.994Z,2.30
2018-08-12T16:22:43.329Z,2.27
2018-08-12T16:25:14.667Z,1.90
2018-08-12T16:27:44.096Z,2.10
2018-08-12T16:30:15.757Z,2.17
2018-08-12T16:32:44.620Z,2.17
2018-08-12T16:35:15.667Z,2.63
2018-08-12T16:37:45.152Z,2.50
2018-08-12T16:40:17.645Z,2.13
2018-08-12T16:42:47.270Z,2.30
2018-08-12T16:45:16.757Z,2.23
2018-08-12T16:47:46.069Z,2.40
2018-08-12T16:50:15.009Z,2.87
2018-08-12T16:52:44.438Z,2.37
2018-08-12T16:55:14.810Z,2.60
2018-08-12T16:57:44.692Z,2.73
2018-08-12T17:00:21.912Z,2.83
2018-08-12T17:02:50.782Z,2.73
2018-08-12T17:05:20.987Z,2.60
2018-08-12T17:07:50.023Z,2.60
2018-08-12T17:10:19.610Z,2.43
2018-08-12T17:12:48.522Z,2.77
2018-08-12T17:15:19.106Z,3.13
2018-08-12T17:17:48.456Z,2.83
2018-08-12T17:20:18.729Z,2.87
2018-08-12T17:22:47.942Z,2.87
2018-08-12T17:25:17.223Z,3.13
2018-08-12T17:27:46.237Z,2.93
2018-08-12T17:30:16.056Z,3.23
2018-08-12T17:32:44.859Z,2.53
2018-08-12T17:35:13.995Z,2.73
2018-08-12T17:37:44.461Z,3.30
2018-08-12T17:40:14.379Z,2.50
2018-08-12T17:42:43.198Z,2.80
2018-08-12T17:45:13.581Z,2.60
2018-08-12T17:47:42.891Z,2.73
2018-08-12T17:50:13.227Z,2.63
2018-08-12T17:52:42.819Z,3.20
2018-08-12T17:55:11.579Z,3.97
2018-08-12T17:57:40.530Z,3.13
2018-08-12T18:00:12.944Z,3.23
2018-08-12T18:02:41.697Z,2.57
2018-08-12T18:05:12.988Z,2.87
2018-08-12T18:07:42.195Z,3.00
2018-08-12T18:10:11.047Z,3.70
2018-08-12T18:12:39.830Z,3.80
2018-08-12T18:15:10.069Z,2.70
2018-08-12T18:17:39.125Z,2.77
2018-08-12T18:20:08.218Z,2.93
2018-08-12T18:22:37.721Z,2.80
2018-08-12T18:25:07.859Z,3.37
2018-08-12T18:27:36.939Z,2.97
2018-08-12T18:30:08.669Z,2.67
2018-08-12T18:32:37.487Z,2.90
2018-08-12T18:35:07.491Z,3.00
2018-08-12T18:37:36.700Z,2.60
2018-08-12T18:40:06.629Z,2.83
2018-08-12T18:42:35.612Z,2.73
2018-08-12T18:45:04.750Z,4.20
2018-08-12T18:47:33.613Z,2.80
2018-08-12T18:50:02.709Z,3.03
2018-08-12T18:52:31.563Z,2.97
2018-08-12T18:55:00.308Z,3.43
2018-08-12T18:57:29.161Z,3.50
2018-08-12T18:59:58.037Z,3.73
2018-08-12T19:02:26.854Z,3.83
2018-08-12T19:04:56.451Z,3.27
2018-08-12T19:07:25.334Z,3.97
2018-08-12T19:09:54.122Z,4.07
2018-08-12T19:12:23.062Z,4.67
2018-08-12T19:14:51.927Z,4.17
2018-08-12T19:17:20.798Z,4.10
2018-08-12T19:19:49.983Z,3.87
2018-08-12T19:22:19.265Z,4.87
2018-08-12T19:24:48.072Z,3.87
2018-08-12T19:27:16.818Z,4.00
2018-08-12T19:29:45.643Z,3.73
2018-08-12T19:32:14.387Z,4.67
2018-08-12T19:34:43.183Z,4.93
2018-08-12T19:37:12.578Z,3.37
2018-08-12T19:39:41.327Z,4.10
2018-08-12T19:42:10.227Z,3.70
2018-08-12T19:44:39.042Z,4.23
2018-08-12T19:47:07.975Z,4.20
2018-08-12T19:49:36.770Z,4.47
2018-08-12T19:52:05.564Z,4.00
2018-08-12T19:54:34.774Z,4.00
2018-08-12T19:57:03.787Z,4.43
2018-08-12T19:59:32.546Z,4.10
2018-08-12T20:02:01.480Z,3.90
2018-08-12T20:04:30.238Z,3.70
2018-08-12T20:06:59.026Z,4.20
2018-08-12T20:09:27.831Z,4.60
2018-08-12T20:11:56.787Z,3.57
2018-08-12T20:14:25.721Z,4.20
2018-08-12T20:16:54.611Z,4.03
2018-08-12T20:19:23.390Z,4.43
2018-08-12T20:21:52.223Z,4.07
2018-08-12T20:24:21.004Z,4.03
2018-08-12T20:26:50.230Z,4.33
2018-08-12T20:29:19.090Z,4.87
2018-08-12T20:31:47.874Z,3.90
2018-08-12T20:34:17.023Z,4.57
2018-08-12T20:36:45.801Z,4.13
2018-08-12T20:39:14.886Z,4.30
2018-08-12T20:41:44.366Z,4.10
2018-08-12T20:44:13.163Z,4.33
2018-08-12T20:46:41.933Z,4.20
2018-08-12T20:49:10.698Z,5.43
2018-08-12T20:51:40.219Z,4.63
2018-08-12T20:54:09.076Z,5.23
2018-08-12T20:56:37.868Z,4.90
2018-08-12T20:59:06.674Z,5.27
2018-08-12T21:01:35.442Z,4.87
2018-08-12T21:04:04.237Z,4.77
2018-08-12T21:06:33.403Z,4.83
2018-08-12T21:09:02.194Z,5.37
2018-08-12T21:11:30.928Z,5.23
2018-08-12T21:13:59.721Z,4.40
2018-08-12T21:16:28.526Z,4.83
2018-08-12T21:18:57.531Z,4.90
2018-08-12T21:21:26.540Z,5.43
2018-08-12T21:23:55.695Z,4.83
2018-08-12T21:26:24.562Z,4.87
2018-08-12T21:28:53.818Z,4.60
2018-08-12T21:31:22.993Z,4.43
2018-08-12T21:33:51.787Z,4.73
2018-08-12T21:36:20.618Z,4.83
2018-08-12T21:38:49.367Z,4.67
2018-08-12T21:41:18.157Z,4.27
2018-08-12T21:43:46.929Z,4.57
2018-08-12T21:46:15.722Z,4.63
2018-08-12T21:48:44.869Z,4.60
2018-08-12T21:51:13.621Z,4.27
2018-08-12T21:53:42.491Z,4.73
2018-08-12T21:56:11.603Z,4.70
2018-08-12T21:58:40.375Z,4.97
2018-08-12T22:01:09.151Z,5.87
2018-08-12T22:03:38.353Z,5.03
2018-08-12T22:06:07.256Z,5.07
2018-08-12T22:08:36.568Z,5.13
2018-08-12T22:11:05.407Z,5.73
2018-08-12T22:13:34.181Z,5.40
2018-08-12T22:16:03.135Z,4.97
2018-08-12T22:18:31.984Z,4.63
2018-08-12T22:21:00.759Z,5.03
2018-08-12T22:23:29.556Z,5.00
2018-08-12T22:25:58.351Z,5.17
2018-08-12T22:28:27.092Z,5.13
2018-08-12T22:30:55.943Z,4.90
2018-08-12T22:33:24.961Z,5.13
2018-08-12T22:35:53.761Z,5.50
2018-08-12T22:38:22.607Z,5.57
2018-08-12T22:40:51.415Z,5.17
2018-08-12T22:43:20.213Z,5.57
2018-08-12T22:45:48.970Z,5.10
2018-08-12T22:48:17.799Z,5.43
2018-08-12T22:50:46.536Z,4.90
2018-08-12T22:53:15.366Z,5.00
2018-08-12T22:55:44.142Z,5.53
2018-08-12T22:58:13.274Z,5.07
2018-08-12T23:00:43.352Z,5.53
2018-08-12T23:03:12.556Z,4.77
2018-08-12T23:05:42.229Z,5.40
2018-08-12T23:08:11.789Z,4.80
2018-08-12T23:10:41.284Z,4.73
2018-08-12T23:13:10.128Z,4.80
2018-08-12T23:16:24.995Z,4.80
2018-08-12T23:18:55.082Z,5.60
2018-08-12T23:21:23.973Z,4.77
2018-08-12T23:23:53.454Z,4.87
2018-08-12T23:26:23.788Z,4.23
2018-08-12T23:28:52.631Z,5.57
2018-08-12T23:31:21.432Z,5.43
2018-08-12T23:33:50.176Z,4.83
2018-08-12T23:36:19.049Z,6.13
2018-08-12T23:38:47.799Z,5.27
2018-08-12T23:41:16.595Z,5.40
2018-08-12T23:43:45.372Z,5.27
2018-08-12T23:46:14.223Z,5.40
2018-08-12T23:48:42.988Z,4.80
2018-08-12T23:51:11.696Z,5.27
2018-08-12T23:53:40.467Z,5.27
2018-08-12T23:56:09.348Z,4.80
2018-08-12T23:58:38.158Z,4.30
